Hovedside
METAR-TAF:

METAR-TAF

Lufthavner :

Lanzarote, Spania

Lanzarote lufthavn

breddegrad: 28-57N, lengdegrad: 013-36W, høyde over havet: 14 m

Gjeldene værobservasjon

Denne rapporten ble laget for 16 minutter siden, klokken 21:00 UTC
Vind 4 kt fra Nord
Temperatur 18°C
Luftfuktighet 68%
Trykk 1018 hPa
Sikt 10 km eller mer
Få skyer i en høyde av 2000 ft

METAR: GCRR 302100Z 35004KT 9999 FEW020 18/12 Q1018

Tid: 21:16 (21:16 UTC)

Varsel

Denne rapporten ble laget for 1 time og 16 minutter siden, klokken 20:00 UTC
Varsel gyldig fra 30. klokken 21 UTC til 01. klokken 21 UTC
Vind 9 kt fra Nord-nordøst
Sikt 10 km eller mer
Få skyer i en høyde av 2500 ft
Blir
fra 01. klokken 14 UTC til 01. klokken 16 UTC
Vind 12 kt fra Nordvest

TAF: GCRR 302000Z 3021/0121 02009KT 9999 FEW025 TX24/0114Z TN16/0106Z BECMG 0114/0116 32012KT

Værobservasjoner og værvarsel for over 4000 flyplasser (METAR- og TAF-rapporter).

Tilgjengelige stasjoner er representert av de røde og gule prikkene på kartet.

Hold musepekeren over prikken for å se navnet på stasjonen.

Klikk så for å se værobservasjoner og -varsler.

For å forandre kartet kan du klikke på den grønne knappen med svart kryss for å zoome inn, på den grønne knappen med strek for å zoome ut, eller på de grønne pilene for å se tilstøtende kart.


METAR-TAF: